Eminence, MO (65466)

3:33 AM CDT on September 02, 2014 (GMT -0500)
RAWS CARR CREEK MO US | Change Station
CLOSE
Current Station
Personal Weather Station
Location: Ellington, MO
Elevation: 1399 ft
Nearby Weather Stations
Active Advisory: Flash Flood Watch

Elev 1399 ft 37.18 °N, 91.12 °W | Updated 58 minutes ago

Partly Cloudy
Partly Cloudy
77 °F
Feels Like 78 °F
N
2
Wind Variable Wind from South
Gusts 5.0 mph

Today
High -- | Low -- °F
--% Chance of Precip.
Yesterday
High -- | Low -- °F
Precip. -- in
6:37 AM 7:33 PM
Waxing Crescent, 49% visible
Pressure 29.92 in
Visibility 10.0 miles
Clouds Clear
Heat Index 78 °F
Dew Point 74 °F
Humidity 89%
Rainfall 0.03 in
Snow Depth Not available.
UV 0 out of 12
Pollen 11.40 out of 12
Air Quality Not available.
Flu Activity Not available.
METAR KUNO 020753Z AUTO 23007KT 10SM CLR 24/22 A2997 RMK AO2 RAE0657 SLP132 P0000 T02440217

More Conditions Fewer Conditions

Pressure 29.92 in
Visibility 10.0 miles
Clouds Clear
Heat Index 78 °F
Dew Point 74 °F
Humidity 89%
Rainfall 0.03 in
Snow Depth Not available.
UV 0 out of 12
Pollen 11.40 out of 12
Air Quality Not available.
Flu Activity Not available.
METAR KUNO 020753Z AUTO 23007KT 10SM CLR 24/22 A2997 RMK AO2 RAE0657 SLP132 P0000 T02440217

More Conditions Fewer Conditions

10-Day Weather Forecast

Almanac

Astronomy

Sep. 02, 2014 Rise Set
Actual Time 6:37 AM CDT 7:33 PM CDT
Civil Twilight 6:10 AM CDT 7:59 PM CDT
Nautical Twilight 5:39 AM CDT 8:31 PM CDT
Astronomical Twilight 5:06 AM CDT 9:03 PM CDT
Moon 2:12 PM CDT No Moon Set
Length of Visible Light 13h 48m
Length of Day
12h 55m
Tomorrow will be 2m 17s shorter.
Waxing Crescent, 49% of the Moon is Illuminated
Today
Waxing Crescent
Sep 2
First Quarter
Sep 8
Full
Sep 15
Last Quarter
Sep 24
New

Today's Extremes

State Highs State Lows

Community

WunderPhotos

Upload Photos

1,749,587 photos uploaded!

WunderBlogs® & News

Nearby

Snow Depth

Station Depth Elevation
No new snow has been reported.

Earthquake Activity

City Distance Mag. Time & Date
Tiptonville, Tennessee 120 miles 2.9 11:19 PM CDT
2014-08-31
Minimum magnitude displayed is 2.5.

Coastal Water Temperatures

Place Temperature
No Stations Reporting

Nearby Weather Stations